Time;durP1;ratioP1;P1;durP2;ratioP2;P2;SDS_P1;SDS_P2;PMS_P1;PMS_P2;Temp;Humidity;BMP_temperature;BMP_pressure;BME280_temperature;BME280_humidity;BME280_pressure;Samples;Min_cycle;Max_cycle;Signal;HPM_P1;HPM_P2
2022/11/02 00:00:38;;;;;;;;;;;13.30;92.40;;;;;;4986733;28;20460;-67
2022/11/02 00:03:04;;;;;;;;;;;13.30;92.40;;;;;;4985655;28;19914;-67
2022/11/02 00:05:29;;;;;;;;;;;13.30;92.40;;;;;;4986520;28;19913;-67
2022/11/02 00:07:55;;;;;;;;;;;13.30;92.30;;;;;;4986316;28;19964;-66
2022/11/02 00:10:21;;;;;;;;;;;13.30;92.40;;;;;;4986019;28;19925;-67
2022/11/02 00:12:47;;;;;;;;;;;13.30;92.30;;;;;;4986171;28;20020;-67
2022/11/02 00:15:12;;;;;;;;;;;13.30;92.40;;;;;;4986806;28;20327;-67
2022/11/02 00:17:46;;;;;;;;;;;13.30;92.40;;;;;;4985392;28;20342;-66
2022/11/02 00:20:13;;;;;;;;;;;13.30;92.40;;;;;;4984578;28;20032;-67
2022/11/02 00:22:38;;;;;;;;;;;13.30;92.50;;;;;;4984607;28;19921;-67
2022/11/02 00:25:05;;;;;;;;;;;13.30;92.70;;;;;;4986623;28;19945;-66
2022/11/02 00:27:31;;;;;;;;;;;13.30;92.50;;;;;;4985671;28;20021;-67
2022/11/02 00:30:00;;;;;;;;;;;13.30;92.50;;;;;;4985773;28;19964;-67
2022/11/02 00:32:26;;;;;;;;;;;13.30;92.40;;;;;;4967922;28;19967;-67
2022/11/02 00:34:51;;;;;;;;;;;13.30;92.50;;;;;;4985708;28;19914;-67
2022/11/02 00:37:17;;;;;;;;;;;13.30;92.50;;;;;;4985848;28;20426;-67
2022/11/02 00:39:43;;;;;;;;;;;13.30;92.50;;;;;;4984031;28;20425;-66
2022/11/02 00:42:08;;;;;;;;;;;13.30;92.50;;;;;;4986376;28;19921;-67
2022/11/02 00:44:34;;;;;;;;;;;13.30;92.50;;;;;;4985441;28;19917;-66
2022/11/02 00:46:59;;;;;;;;;;;13.30;92.40;;;;;;4985432;28;19940;-67
2022/11/02 00:49:25;;;;;;;;;;;13.30;92.40;;;;;;4985673;28;20306;-67
2022/11/02 00:51:50;;;;;;;;;;;13.30;92.30;;;;;;4985299;28;19917;-67
2022/11/02 00:54:16;;;;;;;;;;;13.30;92.50;;;;;;4985402;28;19913;-66
2022/11/02 00:56:41;;;;;;;;;;;13.30;92.40;;;;;;4985466;28;19918;-67
2022/11/02 00:59:07;;;;;;;;;;;13.30;92.40;;;;;;4986132;28;19921;-67
2022/11/02 01:01:32;;;;;;;;;;;13.30;92.50;;;;;;4985457;28;19918;-67
2022/11/02 01:03:58;;;;;;;;;;;13.30;92.50;;;;;;4985880;28;19920;-67
2022/11/02 01:06:23;;;;;;;;;;;13.30;92.50;;;;;;4985944;28;20017;-67
2022/11/02 01:08:49;;;;;;;;;;;13.30;92.50;;;;;;4983736;28;19941;-67
2022/11/02 01:11:16;;;;;;;;;;;13.30;92.50;;;;;;4983618;28;19924;-66
2022/11/02 01:13:41;;;;;;;;;;;13.30;92.50;;;;;;4984701;28;20081;-66
2022/11/02 01:16:07;;;;;;;;;;;13.30;92.50;;;;;;4986534;28;20665;-67
2022/11/02 01:18:32;;;;;;;;;;;13.30;92.50;;;;;;4985751;28;20053;-67
2022/11/02 01:20:58;;;;;;;;;;;13.30;92.50;;;;;;4985767;28;20375;-66
2022/11/02 01:23:24;;;;;;;;;;;13.30;92.60;;;;;;4985546;28;19960;-66
2022/11/02 01:25:50;;;;;;;;;;;13.30;92.50;;;;;;4985403;28;20219;-67
2022/11/02 01:28:15;;;;;;;;;;;13.30;92.40;;;;;;4984855;28;19922;-67
2022/11/02 01:30:41;;;;;;;;;;;13.30;92.40;;;;;;4985043;28;19913;-67
2022/11/02 01:33:06;;;;;;;;;;;13.30;92.50;;;;;;4985766;28;19914;-67
2022/11/02 01:35:32;;;;;;;;;;;13.30;92.50;;;;;;4985167;28;19940;-66
2022/11/02 01:37:57;;;;;;;;;;;13.30;92.60;;;;;;4986161;28;19936;-67
2022/11/02 01:40:23;;;;;;;;;;;13.30;92.60;;;;;;4985892;28;19913;-67
2022/11/02 01:42:48;;;;;;;;;;;13.30;92.40;;;;;;4980983;28;19910;-67
2022/11/02 01:45:14;;;;;;;;;;;13.30;92.30;;;;;;4986326;28;20031;-67
2022/11/02 01:47:41;;;;;;;;;;;13.20;92.50;;;;;;4989053;28;19918;-66
2022/11/02 01:50:22;;;;;;;;;;;13.20;92.50;;;;;;4988723;28;19914;-66
2022/11/02 01:52:48;;;;;;;;;;;13.20;92.50;;;;;;4988648;28;19918;-67
2022/11/02 01:55:18;;;;;;;;;;;13.20;92.50;;;;;;4987064;28;19921;-67
2022/11/02 01:57:52;;;;;;;;;;;13.20;92.60;;;;;;4989634;28;19920;-67
2022/11/02 02:00:17;;;;;;;;;;;13.20;92.50;;;;;;4987529;28;19920;-67
2022/11/02 02:02:54;;;;;;;;;;;13.20;92.50;;;;;;4989539;28;20366;-67
2022/11/02 02:05:21;;;;;;;;;;;13.20;92.50;;;;;;4989191;28;20289;-66
2022/11/02 02:07:48;;;;;;;;;;;13.20;92.50;;;;;;4989038;28;19914;-66
2022/11/02 02:10:14;;;;;;;;;;;13.30;92.60;;;;;;4988367;28;19985;-67
2022/11/02 02:12:40;;;;;;;;;;;13.20;92.50;;;;;;4988811;28;19917;-66
2022/11/02 02:15:06;;;;;;;;;;;13.20;92.60;;;;;;4988983;28;19918;-66
2022/11/02 02:17:36;;;;;;;;;;;13.20;92.50;;;;;;4987778;28;19925;-66
2022/11/02 02:20:08;;;;;;;;;;;13.20;92.50;;;;;;4987002;28;20012;-66
2022/11/02 02:22:33;;;;;;;;;;;13.20;92.50;;;;;;4988405;28;19913;-67
2022/11/02 02:24:58;;;;;;;;;;;13.20;92.40;;;;;;4987802;28;19994;-66
2022/11/02 02:27:47;;;;;;;;;;;13.20;92.50;;;;;;4988653;28;19913;-66
2022/11/02 02:30:12;;;;;;;;;;;13.20;92.60;;;;;;4985918;28;19920;-66
2022/11/02 02:32:38;;;;;;;;;;;13.20;92.50;;;;;;4987888;28;19921;-67
2022/11/02 02:35:30;;;;;;;;;;;13.20;92.50;;;;;;4987944;28;19917;-66
2022/11/02 02:38:03;;;;;;;;;;;13.20;92.60;;;;;;4987698;28;19964;-66
2022/11/02 02:40:36;;;;;;;;;;;13.20;92.60;;;;;;4987597;28;19914;-67
2022/11/02 02:43:17;;;;;;;;;;;13.20;92.60;;;;;;4988409;28;19968;-67
2022/11/02 02:45:51;;;;;;;;;;;13.20;92.60;;;;;;4988419;28;19914;-67
2022/11/02 02:48:18;;;;;;;;;;;13.20;92.60;;;;;;4987971;28;20029;-66
2022/11/02 02:50:48;;;;;;;;;;;13.20;92.60;;;;;;4987196;28;19918;-67
2022/11/02 02:53:15;;;;;;;;;;;13.10;92.60;;;;;;4987884;28;20244;-67
2022/11/02 02:55:42;;;;;;;;;;;13.20;92.60;;;;;;4987771;28;19914;-67
2022/11/02 02:58:12;;;;;;;;;;;13.10;92.60;;;;;;4987923;28;20001;-66
2022/11/02 03:00:38;;;;;;;;;;;13.20;92.60;;;;;;4987811;28;19921;-66
2022/11/02 03:03:04;;;;;;;;;;;13.10;92.60;;;;;;4989888;28;19921;-67
2022/11/02 03:05:29;;;;;;;;;;;13.10;92.60;;;;;;4998406;28;19924;-67
2022/11/02 03:07:56;;;;;;;;;;;13.20;92.50;;;;;;4990949;28;19924;-67
2022/11/02 03:10:33;;;;;;;;;;;13.20;92.60;;;;;;4987606;28;19961;-67
2022/11/02 03:13:10;;;;;;;;;;;13.20;92.60;;;;;;4988313;28;20611;-67
2022/11/02 03:15:36;;;;;;;;;;;13.10;92.50;;;;;;4988070;28;19914;-67
2022/11/02 03:18:01;;;;;;;;;;;13.10;92.60;;;;;;4988103;28;19913;-66
2022/11/02 03:20:32;;;;;;;;;;;13.20;92.40;;;;;;4987440;28;20020;-67
2022/11/02 03:23:18;;;;;;;;;;;13.10;92.40;;;;;;4985558;28;19922;-66
2022/11/02 03:26:02;;;;;;;;;;;13.10;92.60;;;;;;4987299;28;19921;-67
2022/11/02 03:28:37;;;;;;;;;;;13.10;92.80;;;;;;4987027;28;20679;-67
2022/11/02 03:31:09;;;;;;;;;;;13.10;92.50;;;;;;4987053;28;20020;-67
2022/11/02 03:33:36;;;;;;;;;;;13.10;92.60;;;;;;4987248;28;19921;-67
2022/11/02 03:36:09;;;;;;;;;;;13.10;92.60;;;;;;4986755;28;19921;-67
2022/11/02 03:38:42;;;;;;;;;;;13.20;92.60;;;;;;4987144;28;20487;-66
2022/11/02 03:41:08;;;;;;;;;;;13.10;92.40;;;;;;4986709;28;20255;-67
2022/11/02 03:43:35;;;;;;;;;;;13.10;92.60;;;;;;4987085;28;19914;-66
2022/11/02 03:46:02;;;;;;;;;;;13.10;92.50;;;;;;4984708;28;19925;-67
2022/11/02 03:48:34;;;;;;;;;;;13.10;92.50;;;;;;4994085;28;19913;-67
2022/11/02 03:51:04;;;;;;;;;;;13.10;92.50;;;;;;4998113;28;19917;-67
2022/11/02 03:53:33;;;;;;;;;;;13.10;92.40;;;;;;5006617;28;19913;-66
2022/11/02 03:56:01;;;;;;;;;;;13.10;92.50;;;;;;4996562;28;19914;-66
2022/11/02 03:58:26;;;;;;;;;;;13.10;92.50;;;;;;4986717;28;19914;-66
2022/11/02 04:00:54;;;;;;;;;;;13.10;92.60;;;;;;4986523;28;19921;-67
2022/11/02 04:03:21;;;;;;;;;;;13.10;92.50;;;;;;4986788;28;19914;-67
2022/11/02 04:05:46;;;;;;;;;;;13.10;92.60;;;;;;4986668;28;19949;-67
2022/11/02 04:08:20;;;;;;;;;;;13.10;92.40;;;;;;4985535;28;20389;-66
2022/11/02 04:16:15;;;;;;;;;;;13.00;92.50;;;;;;4986682;28;19941;-67
2022/11/02 04:21:26;;;;;;;;;;;13.10;92.50;;;;;;4986119;28;20528;-66
2022/11/02 04:26:35;;;;;;;;;;;13.10;92.60;;;;;;4986012;28;19959;-66
2022/11/02 04:29:01;;;;;;;;;;;13.00;92.50;;;;;;4986325;28;20510;-66
2022/11/02 04:31:27;;;;;;;;;;;13.00;92.50;;;;;;4985957;28;19925;-66
2022/11/02 04:33:52;;;;;;;;;;;13.00;92.50;;;;;;4986213;28;19921;-66
2022/11/02 04:36:18;;;;;;;;;;;13.00;92.60;;;;;;4986153;28;19917;-66
2022/11/02 04:38:43;;;;;;;;;;;13.00;92.60;;;;;;5000969;28;19965;-68
2022/11/02 04:43:57;;;;;;;;;;;13.00;92.50;;;;;;4985735;28;19924;-67
2022/11/02 04:46:24;;;;;;;;;;;13.00;92.60;;;;;;4985471;28;19914;-67
2022/11/02 04:48:49;;;;;;;;;;;13.00;92.40;;;;;;4985874;28;19914;-67
2022/11/02 04:51:15;;;;;;;;;;;13.00;92.60;;;;;;4985805;28;20101;-67
2022/11/02 04:53:41;;;;;;;;;;;12.90;92.70;;;;;;4986112;28;19997;-67
2022/11/02 04:56:07;;;;;;;;;;;12.90;92.50;;;;;;4985204;28;19918;-67
2022/11/02 04:58:33;;;;;;;;;;;13.00;92.70;;;;;;4985735;28;20614;-66
2022/11/02 05:01:02;;;;;;;;;;;12.90;92.50;;;;;;4985658;28;19914;-67
2022/11/02 05:03:28;;;;;;;;;;;13.00;92.60;;;;;;4985863;28;19961;-67
2022/11/02 05:05:54;;;;;;;;;;;13.00;92.50;;;;;;4985871;28;20520;-67
2022/11/02 05:08:19;;;;;;;;;;;12.90;92.50;;;;;;4985916;28;19913;-67
2022/11/02 05:10:45;;;;;;;;;;;13.00;92.50;;;;;;4985120;28;19926;-67
2022/11/02 05:13:10;;;;;;;;;;;13.00;92.50;;;;;;4985468;28;19925;-67
2022/11/02 05:15:39;;;;;;;;;;;13.00;92.40;;;;;;4985607;28;19913;-67
2022/11/02 05:18:04;;;;;;;;;;;12.90;92.40;;;;;;4985654;28;20001;-67
2022/11/02 05:20:30;;;;;;;;;;;12.90;92.40;;;;;;4987158;28;20012;-67
2022/11/02 05:22:55;;;;;;;;;;;12.90;92.40;;;;;;4989631;28;19925;-67
2022/11/02 05:25:21;;;;;;;;;;;12.90;92.40;;;;;;4989599;28;19922;-67
2022/11/02 05:27:46;;;;;;;;;;;12.90;92.40;;;;;;4989180;28;20278;-67
2022/11/02 05:30:12;;;;;;;;;;;12.90;92.50;;;;;;4989248;28;19917;-67
2022/11/02 05:32:37;;;;;;;;;;;12.90;92.40;;;;;;4989047;28;19924;-67
2022/11/02 05:35:03;;;;;;;;;;;12.90;92.40;;;;;;4989295;28;19921;-66
2022/11/02 05:37:29;;;;;;;;;;;12.90;92.40;;;;;;4989419;28;19921;-67
2022/11/02 05:39:54;;;;;;;;;;;12.90;92.40;;;;;;4989436;28;20008;-66
2022/11/02 05:42:20;;;;;;;;;;;12.90;92.30;;;;;;4989383;28;19921;-67
2022/11/02 05:44:45;;;;;;;;;;;12.90;92.30;;;;;;4989140;28;19992;-67
2022/11/02 05:47:11;;;;;;;;;;;12.90;92.30;;;;;;4988567;28;19918;-67
2022/11/02 05:49:36;;;;;;;;;;;12.90;92.40;;;;;;4988764;28;20275;-66
2022/11/02 05:52:01;;;;;;;;;;;12.90;92.40;;;;;;4989402;28;19917;-67
2022/11/02 05:54:27;;;;;;;;;;;12.90;92.40;;;;;;4989669;28;19926;-67
2022/11/02 05:56:52;;;;;;;;;;;12.90;92.40;;;;;;4988968;28;20581;-67
2022/11/02 05:59:18;;;;;;;;;;;12.90;92.40;;;;;;4989526;28;20056;-67
2022/11/02 06:01:43;;;;;;;;;;;12.90;92.30;;;;;;4989095;28;20719;-66
2022/11/02 06:04:09;;;;;;;;;;;12.90;92.60;;;;;;4989112;28;20355;-67
2022/11/02 06:06:34;;;;;;;;;;;12.90;92.30;;;;;;4989231;28;19921;-67
2022/11/02 06:09:00;;;;;;;;;;;12.90;92.30;;;;;;4989784;28;19914;-67
2022/11/02 06:11:25;;;;;;;;;;;12.90;92.20;;;;;;4989526;28;19921;-67
2022/11/02 06:13:51;;;;;;;;;;;12.90;92.10;;;;;;4988911;28;19922;-67
2022/11/02 06:16:16;;;;;;;;;;;12.90;92.30;;;;;;4989128;28;20058;-67
2022/11/02 06:18:42;;;;;;;;;;;12.80;92.30;;;;;;4988646;28;19914;-67
2022/11/02 06:21:08;;;;;;;;;;;12.90;92.30;;;;;;4988454;28;19913;-66
2022/11/02 06:23:33;;;;;;;;;;;12.90;92.20;;;;;;4988460;28;19920;-67
2022/11/02 06:25:59;;;;;;;;;;;12.90;92.30;;;;;;4988680;28;19937;-67
2022/11/02 06:28:25;;;;;;;;;;;12.90;92.20;;;;;;4988823;28;20538;-67
2022/11/02 06:30:50;;;;;;;;;;;12.90;92.20;;;;;;4985930;28;19914;-67
2022/11/02 06:33:16;;;;;;;;;;;12.90;92.50;;;;;;4988727;28;19910;-67
2022/11/02 06:35:46;;;;;;;;;;;12.80;92.20;;;;;;4987071;28;19914;-66
2022/11/02 06:38:11;;;;;;;;;;;12.80;92.30;;;;;;4988355;28;19917;-67
2022/11/02 06:40:37;;;;;;;;;;;12.80;92.20;;;;;;4987891;28;20397;-67
2022/11/02 06:43:02;;;;;;;;;;;12.80;92.10;;;;;;4988279;28;19945;-68
2022/11/02 06:45:28;;;;;;;;;;;12.80;92.20;;;;;;4988274;28;19959;-67
2022/11/02 06:47:53;;;;;;;;;;;12.80;92.10;;;;;;4987888;28;19914;-67
2022/11/02 06:50:20;;;;;;;;;;;12.80;92.10;;;;;;4986544;28;19917;-67
2022/11/02 06:52:46;;;;;;;;;;;12.80;92.20;;;;;;4988179;28;20268;-66
2022/11/02 06:55:12;;;;;;;;;;;12.90;92.20;;;;;;4987954;28;19913;-67
2022/11/02 06:57:38;;;;;;;;;;;12.90;92.20;;;;;;4988024;28;19914;-67
2022/11/02 07:00:04;;;;;;;;;;;12.80;92.10;;;;;;4987423;28;20370;-67
2022/11/02 07:02:30;;;;;;;;;;;12.80;92.20;;;;;;4987883;28;19921;-66
2022/11/02 07:04:55;;;;;;;;;;;12.90;92.20;;;;;;4987283;28;19913;-67
2022/11/02 07:07:21;;;;;;;;;;;12.90;92.20;;;;;;4987800;28;19918;-67
2022/11/02 07:09:46;;;;;;;;;;;12.90;92.20;;;;;;4987226;28;19921;-67
2022/11/02 07:12:12;;;;;;;;;;;12.90;92.20;;;;;;4987225;28;19917;-67
2022/11/02 07:14:37;;;;;;;;;;;12.90;92.20;;;;;;4987810;28;19914;-67
2022/11/02 07:17:03;;;;;;;;;;;12.90;92.20;;;;;;4987293;28;20334;-67
2022/11/02 07:19:28;;;;;;;;;;;12.90;92.00;;;;;;5002019;28;20639;-67
2022/11/02 07:21:54;;;;;;;;;;;12.90;92.10;;;;;;4987539;28;20274;-67
2022/11/02 07:24:19;;;;;;;;;;;12.90;92.10;;;;;;4987492;28;19915;-66
2022/11/02 07:26:51;;;;;;;;;;;12.90;92.00;;;;;;4987497;28;19924;-67
2022/11/02 07:29:17;;;;;;;;;;;12.90;92.10;;;;;;4986992;28;19920;-66
2022/11/02 07:31:43;;;;;;;;;;;12.90;92.10;;;;;;4987011;28;19918;-67
2022/11/02 07:34:09;;;;;;;;;;;12.90;92.00;;;;;;4987252;28;19920;-67
2022/11/02 07:36:34;;;;;;;;;;;12.90;92.10;;;;;;4987050;28;19913;-66
2022/11/02 07:39:00;;;;;;;;;;;12.90;92.00;;;;;;4987532;28;19914;-67
2022/11/02 07:41:25;;;;;;;;;;;13.00;91.90;;;;;;4985244;28;20449;-66
2022/11/02 07:43:51;;;;;;;;;;;13.00;92.00;;;;;;4969087;28;19914;-66
2022/11/02 07:46:16;;;;;;;;;;;13.00;92.00;;;;;;4969456;28;19920;-67
2022/11/02 07:48:42;;;;;;;;;;;13.00;91.90;;;;;;4985442;28;19914;-67
2022/11/02 07:51:10;;;;;;;;;;;13.00;91.90;;;;;;4986525;28;19924;-67
2022/11/02 07:53:35;;;;;;;;;;;12.90;91.80;;;;;;4986571;28;19913;-67
2022/11/02 07:56:02;;;;;;;;;;;13.00;92.00;;;;;;4986499;28;20456;-68
2022/11/02 07:58:27;;;;;;;;;;;13.00;92.00;;;;;;4986218;28;19922;-66
2022/11/02 08:00:53;;;;;;;;;;;13.00;92.00;;;;;;4986142;28;19952;-67
2022/11/02 08:03:19;;;;;;;;;;;12.90;91.80;;;;;;4986462;28;19914;-67
2022/11/02 08:05:45;;;;;;;;;;;13.00;91.90;;;;;;4986291;28;19925;-67
2022/11/02 08:08:12;;;;;;;;;;;13.00;91.90;;;;;;4986713;28;19943;-67
2022/11/02 08:10:37;;;;;;;;;;;13.00;91.90;;;;;;4985187;28;20537;-67
2022/11/02 08:13:03;;;;;;;;;;;13.00;91.80;;;;;;4986515;28;19921;-67
2022/11/02 08:15:29;;;;;;;;;;;13.00;91.90;;;;;;4986548;28;20017;-67
2022/11/02 08:18:03;;;;;;;;;;;13.00;91.80;;;;;;4986571;28;19914;-66
2022/11/02 08:20:29;;;;;;;;;;;13.00;91.90;;;;;;4986175;28;19924;-66
2022/11/02 08:22:55;;;;;;;;;;;13.00;91.90;;;;;;4986287;28;20252;-67
2022/11/02 08:25:20;;;;;;;;;;;13.00;91.90;;;;;;4986445;28;20613;-67
2022/11/02 08:27:46;;;;;;;;;;;13.00;91.90;;;;;;4986628;28;19913;-67
2022/11/02 08:30:11;;;;;;;;;;;13.00;91.90;;;;;;4985817;28;20559;-66
2022/11/02 08:32:37;;;;;;;;;;;13.10;92.00;;;;;;4986322;28;20008;-66
2022/11/02 08:35:03;;;;;;;;;;;13.10;91.80;;;;;;4986028;28;19914;-66
2022/11/02 08:37:28;;;;;;;;;;;13.10;91.70;;;;;;4986226;28;19914;-67
2022/11/02 08:39:54;;;;;;;;;;;13.10;91.70;;;;;;4985966;28;19921;-66
2022/11/02 08:42:19;;;;;;;;;;;13.10;91.80;;;;;;4986058;28;19925;-67
2022/11/02 08:44:45;;;;;;;;;;;13.10;91.70;;;;;;4986005;28;19918;-66
2022/11/02 08:47:11;;;;;;;;;;;13.10;91.80;;;;;;4985974;28;19917;-67
2022/11/02 08:49:36;;;;;;;;;;;13.10;91.70;;;;;;4986131;28;19914;-66
2022/11/02 08:52:02;;;;;;;;;;;13.10;91.70;;;;;;4986222;28;20251;-66
2022/11/02 08:54:27;;;;;;;;;;;13.20;91.70;;;;;;4985916;28;19914;-66
2022/11/02 08:56:53;;;;;;;;;;;13.20;91.50;;;;;;4986009;28;20577;-67
2022/11/02 08:59:18;;;;;;;;;;;13.20;91.60;;;;;;4985647;28;20021;-67
2022/11/02 09:01:43;;;;;;;;;;;13.20;91.50;;;;;;5000388;28;19922;-66
2022/11/02 09:04:09;;;;;;;;;;;13.20;91.60;;;;;;4986090;28;19920;-66
2022/11/02 09:06:34;;;;;;;;;;;13.20;91.60;;;;;;4986368;28;19914;-67
2022/11/02 09:09:00;;;;;;;;;;;13.30;91.60;;;;;;4985869;28;20417;-66
2022/11/02 09:11:25;;;;;;;;;;;13.30;91.60;;;;;;4986005;28;19921;-66
2022/11/02 09:13:51;;;;;;;;;;;13.30;91.60;;;;;;4985914;28;19913;-67
2022/11/02 09:16:16;;;;;;;;;;;13.30;91.50;;;;;;4986338;28;20399;-67
2022/11/02 09:18:42;;;;;;;;;;;13.30;91.50;;;;;;4985996;28;19922;-66
2022/11/02 09:21:08;;;;;;;;;;;13.40;91.50;;;;;;4985376;28;20278;-66
2022/11/02 09:23:33;;;;;;;;;;;13.40;91.40;;;;;;4985942;28;19944;-66
2022/11/02 09:25:59;;;;;;;;;;;13.40;91.40;;;;;;4985788;28;19914;-66
2022/11/02 09:28:24;;;;;;;;;;;13.40;91.20;;;;;;4984078;28;20001;-67
2022/11/02 09:30:50;;;;;;;;;;;13.40;91.40;;;;;;4985139;28;19922;-66
2022/11/02 09:33:16;;;;;;;;;;;13.40;91.40;;;;;;4985817;28;19989;-66
2022/11/02 09:35:43;;;;;;;;;;;13.40;91.20;;;;;;4985513;28;20033;-67
2022/11/02 09:38:08;;;;;;;;;;;13.40;91.10;;;;;;4985872;28;19921;-66
2022/11/02 09:40:40;;;;;;;;;;;13.40;91.30;;;;;;4985677;28;20566;-67
2022/11/02 09:43:17;;;;;;;;;;;13.40;91.20;;;;;;4985633;28;20551;-66
2022/11/02 09:45:58;;;;;;;;;;;13.40;91.30;;;;;;5000297;28;19957;-67
2022/11/02 09:48:28;;;;;;;;;;;13.40;91.30;;;;;;4984757;28;20527;-66
2022/11/02 09:51:05;;;;;;;;;;;13.50;91.30;;;;;;4984353;28;19914;-66
2022/11/02 09:53:43;;;;;;;;;;;13.50;91.30;;;;;;4985137;28;20379;-67
2022/11/02 09:56:09;;;;;;;;;;;13.50;91.40;;;;;;4985675;28;20553;-67
2022/11/02 09:58:39;;;;;;;;;;;13.50;91.30;;;;;;4985413;28;20424;-66
2022/11/02 10:01:09;;;;;;;;;;;13.50;91.30;;;;;;4985153;28;19913;-66
2022/11/02 10:03:45;;;;;;;;;;;13.50;91.20;;;;;;4985331;28;19913;-66
2022/11/02 10:06:14;;;;;;;;;;;13.50;91.40;;;;;;4986719;28;19914;-67
2022/11/02 10:08:42;;;;;;;;;;;13.50;91.20;;;;;;4988846;28;20540;-67
2022/11/02 10:11:11;;;;;;;;;;;13.50;91.20;;;;;;4988894;28;19941;-66
2022/11/02 10:13:40;;;;;;;;;;;13.50;91.20;;;;;;4988715;28;19984;-67
2022/11/02 10:16:11;;;;;;;;;;;13.50;91.30;;;;;;4988754;28;19944;-67
2022/11/02 10:18:38;;;;;;;;;;;13.40;91.30;;;;;;4988692;28;19910;-67
2022/11/02 10:21:12;;;;;;;;;;;13.50;91.30;;;;;;4987685;28;19914;-66
2022/11/02 10:23:45;;;;;;;;;;;13.50;91.20;;;;;;4987768;28;19925;-66
2022/11/02 10:26:18;;;;;;;;;;;13.40;91.20;;;;;;4988195;28;19917;-66
2022/11/02 10:28:46;;;;;;;;;;;13.40;91.20;;;;;;4988352;28;19988;-66
2022/11/02 10:31:21;;;;;;;;;;;13.40;91.30;;;;;;4987859;28;20007;-67
2022/11/02 10:33:47;;;;;;;;;;;13.40;91.30;;;;;;5003353;28;20511;-67
2022/11/02 10:36:12;;;;;;;;;;;13.40;91.30;;;;;;4988263;28;20374;-66
2022/11/02 10:38:56;;;;;;;;;;;13.40;91.00;;;;;;4989158;28;19937;-66
2022/11/02 10:41:39;;;;;;;;;;;13.40;91.30;;;;;;4988444;28;20553;-66
2022/11/02 10:44:19;;;;;;;;;;;13.40;91.20;;;;;;4988423;28;20390;-67
2022/11/02 10:46:59;;;;;;;;;;;13.40;91.10;;;;;;4989087;28;19929;-66
2022/11/02 10:49:31;;;;;;;;;;;13.40;91.10;;;;;;4988328;28;19914;-66
2022/11/02 10:51:56;;;;;;;;;;;13.40;91.20;;;;;;4988336;28;20561;-66
2022/11/02 10:54:21;;;;;;;;;;;13.50;91.00;;;;;;4988138;28;19937;-67
2022/11/02 10:56:47;;;;;;;;;;;13.50;90.80;;;;;;4988286;28;19913;-66
2022/11/02 10:59:13;;;;;;;;;;;13.40;90.90;;;;;;4986206;28;20251;-67
2022/11/02 11:02:00;;;;;;;;;;;13.40;91.00;;;;;;4987688;28;20634;-67
2022/11/02 11:04:27;;;;;;;;;;;13.40;90.60;;;;;;4987041;28;20406;-67
2022/11/02 11:06:53;;;;;;;;;;;13.40;90.80;;;;;;4986103;28;19921;-67
2022/11/02 11:09:23;;;;;;;;;;;13.40;90.50;;;;;;4987725;28;19921;-67
2022/11/02 11:12:03;;;;;;;;;;;13.40;90.40;;;;;;4987324;28;19918;-67
2022/11/02 11:14:29;;;;;;;;;;;13.50;90.80;;;;;;4987256;28;19969;-67
2022/11/02 11:16:56;;;;;;;;;;;13.50;90.80;;;;;;4986481;28;19914;-67
2022/11/02 11:19:21;;;;;;;;;;;13.50;90.70;;;;;;4986631;28;19914;-66
2022/11/02 11:21:50;;;;;;;;;;;13.60;90.80;;;;;;4987654;28;19913;-67
2022/11/02 11:24:20;;;;;;;;;;;13.60;90.10;;;;;;4987704;28;19921;-66
2022/11/02 11:26:58;;;;;;;;;;;13.60;90.30;;;;;;4987450;28;19968;-67
2022/11/02 11:29:24;;;;;;;;;;;13.70;90.50;;;;;;4986603;28;20016;-66
2022/11/02 11:31:49;;;;;;;;;;;13.70;90.60;;;;;;4987283;28;20536;-66
2022/11/02 11:34:25;;;;;;;;;;;13.80;90.10;;;;;;4987494;28;19933;-67
2022/11/02 11:36:51;;;;;;;;;;;13.80;90.40;;;;;;4987356;28;20005;-66
2022/11/02 11:39:27;;;;;;;;;;;13.80;90.50;;;;;;4987299;28;20012;-66
2022/11/02 11:41:53;;;;;;;;;;;13.80;90.40;;;;;;4986884;28;19920;-66
2022/11/02 11:44:19;;;;;;;;;;;13.90;90.30;;;;;;4987003;28;19918;-67
2022/11/02 11:46:49;;;;;;;;;;;13.90;90.20;;;;;;4987202;28;19917;-66
2022/11/02 11:49:32;;;;;;;;;;;13.90;89.70;;;;;;4985997;28;19913;-66
2022/11/02 11:51:59;;;;;;;;;;;14.00;89.80;;;;;;4982212;28;19925;-66
2022/11/02 11:54:25;;;;;;;;;;;14.00;90.10;;;;;;4987215;28;19915;-66
2022/11/02 11:56:52;;;;;;;;;;;14.10;89.90;;;;;;4987282;28;19972;-67
2022/11/02 11:59:44;;;;;;;;;;;14.10;90.10;;;;;;4982115;28;20012;-66
2022/11/02 12:02:23;;;;;;;;;;;14.10;90.10;;;;;;4967576;28;19914;-66
2022/11/02 12:04:49;;;;;;;;;;;14.20;89.80;;;;;;4967561;28;20565;-66
2022/11/02 12:07:24;;;;;;;;;;;14.20;89.60;;;;;;4986827;28;19929;-67
2022/11/02 12:10:04;;;;;;;;;;;14.30;88.90;;;;;;4986873;28;19928;-67
2022/11/02 12:12:30;;;;;;;;;;;14.30;89.30;;;;;;4986289;28;19925;-66
2022/11/02 12:15:15;;;;;;;;;;;14.40;89.50;;;;;;4986356;28;19917;-68
2022/11/02 12:17:46;;;;;;;;;;;14.40;89.10;;;;;;4986247;28;19913;-66
2022/11/02 12:20:30;;;;;;;;;;;14.40;88.80;;;;;;4986318;28;20337;-67
2022/11/02 12:23:02;;;;;;;;;;;14.40;89.50;;;;;;4986808;28;20024;-67
2022/11/02 12:25:40;;;;;;;;;;;14.40;88.50;;;;;;4986840;28;19913;-67
2022/11/02 12:28:21;;;;;;;;;;;14.40;88.50;;;;;;4986066;28;20005;-66
2022/11/02 12:30:53;;;;;;;;;;;14.50;89.30;;;;;;4986448;28;20016;-66
2022/11/02 12:33:24;;;;;;;;;;;14.50;87.90;;;;;;4986705;28;19953;-66
2022/11/02 12:36:11;;;;;;;;;;;14.50;88.90;;;;;;4986114;28;20645;-66
2022/11/02 12:38:36;;;;;;;;;;;14.50;89.00;;;;;;4986126;28;20434;-67
2022/11/02 12:41:02;;;;;;;;;;;14.50;89.00;;;;;;4985787;28;19949;-67
2022/11/02 12:43:33;;;;;;;;;;;14.50;89.20;;;;;;4985864;28;19914;-66
2022/11/02 12:46:07;;;;;;;;;;;14.50;88.30;;;;;;4985561;28;20381;-67
2022/11/02 12:48:51;;;;;;;;;;;14.50;89.50;;;;;;4985645;28;20012;-67
2022/11/02 12:51:20;;;;;;;;;;;14.60;89.60;;;;;;4985507;28;19918;-67
2022/11/02 12:53:57;;;;;;;;;;;14.60;89.30;;;;;;4986728;28;20000;-66
2022/11/02 12:56:29;;;;;;;;;;;14.60;89.20;;;;;;4987277;28;19917;-67
2022/11/02 12:58:55;;;;;;;;;;;14.60;88.70;;;;;;4986338;28;20378;-66
2022/11/02 13:01:30;;;;;;;;;;;14.70;88.20;;;;;;4984588;28;20001;-66
2022/11/02 13:03:56;;;;;;;;;;;14.70;88.40;;;;;;4984320;28;20371;-67
2022/11/02 13:06:35;;;;;;;;;;;14.70;87.60;;;;;;4985112;28;19930;-66
2022/11/02 13:09:18;;;;;;;;;;;14.70;88.20;;;;;;4986126;28;19925;-66
2022/11/02 13:12:02;;;;;;;;;;;14.70;88.40;;;;;;4985498;28;19918;-66
2022/11/02 13:14:33;;;;;;;;;;;14.80;87.40;;;;;;4985050;28;19914;-66
2022/11/02 13:17:01;;;;;;;;;;;14.80;89.00;;;;;;4985189;28;19932;-66
2022/11/02 13:19:42;;;;;;;;;;;14.80;89.00;;;;;;4984569;28;19914;-67
2022/11/02 13:22:09;;;;;;;;;;;14.90;89.10;;;;;;4972148;28;20032;-67
2022/11/02 13:24:46;;;;;;;;;;;14.80;88.80;;;;;;4985112;28;19913;-67
2022/11/02 13:27:32;;;;;;;;;;;14.90;88.70;;;;;;4984687;28;19960;-66
2022/11/02 13:30:00;;;;;;;;;;;14.80;89.00;;;;;;4984026;28;20032;-66
2022/11/02 13:32:31;;;;;;;;;;;14.90;89.40;;;;;;4983106;28;19918;-66
2022/11/02 13:34:57;;;;;;;;;;;14.80;89.80;;;;;;4984886;28;19968;-66
2022/11/02 13:37:23;;;;;;;;;;;14.80;89.60;;;;;;4984824;28;19914;-67
2022/11/02 13:39:54;;;;;;;;;;;14.80;87.60;;;;;;4983958;28;19914;-66
2022/11/02 13:42:20;;;;;;;;;;;14.80;89.80;;;;;;4988155;28;19914;-66
2022/11/02 13:45:04;;;;;;;;;;;14.80;90.00;;;;;;4988367;28;19928;-67
2022/11/02 13:47:32;;;;;;;;;;;14.80;89.00;;;;;;5003530;28;20391;-67
2022/11/02 13:49:59;;;;;;;;;;;14.80;90.20;;;;;;4987520;28;20671;-67
2022/11/02 13:52:37;;;;;;;;;;;14.80;90.30;;;;;;4986482;28;19925;-67
2022/11/02 13:55:04;;;;;;;;;;;14.70;90.20;;;;;;4985230;28;19918;-67
2022/11/02 13:57:29;;;;;;;;;;;14.70;90.10;;;;;;4987404;28;19914;-68
2022/11/02 13:59:55;;;;;;;;;;;14.80;90.40;;;;;;4987584;28;20641;-67
2022/11/02 14:02:21;;;;;;;;;;;14.70;90.40;;;;;;4986714;28;19989;-67
2022/11/02 14:04:47;;;;;;;;;;;14.70;90.50;;;;;;4989129;28;20617;-66
2022/11/02 14:07:22;;;;;;;;;;;14.70;90.40;;;;;;4988519;28;20510;-66
2022/11/02 14:09:48;;;;;;;;;;;14.70;90.00;;;;;;5003376;28;20413;-67
2022/11/02 14:12:16;;;;;;;;;;;14.70;90.40;;;;;;4988690;28;19917;-67
2022/11/02 14:14:42;;;;;;;;;;;14.70;90.40;;;;;;5003668;28;19918;-67
2022/11/02 14:17:11;;;;;;;;;;;14.60;90.10;;;;;;5001536;28;20032;-67
2022/11/02 14:19:39;;;;;;;;;;;14.60;90.00;;;;;;5006749;28;19917;-67
2022/11/02 14:22:10;;;;;;;;;;;14.60;90.50;;;;;;5004477;28;19975;-67
2022/11/02 14:24:35;;;;;;;;;;;14.60;90.30;;;;;;4988220;28;20322;-66
2022/11/02 14:27:03;;;;;;;;;;;14.60;90.20;;;;;;4988567;28;19909;-67
2022/11/02 14:29:41;;;;;;;;;;;14.60;90.10;;;;;;4987558;28;19933;-68
2022/11/02 14:32:14;;;;;;;;;;;14.60;90.20;;;;;;4987560;28;19985;-66
2022/11/02 14:34:47;;;;;;;;;;;14.60;90.20;;;;;;4987262;28;19993;-67
2022/11/02 14:37:24;;;;;;;;;;;14.50;90.40;;;;;;4987677;28;20710;-66